DW8690 Weather Reports


Display with metric or nautical units.
time (UTC)temp
F
wind
direction
speed
MPH
gust
MPH
rain 1hr
in
rain 24hr
in
rain mn
in
humidity
%
barometer
mb
20210621191505 96 135 7.0 11.0 0.00 0.00 0.00 10 1014.2
20210621191005 95 135 3.0 10.0 0.00 0.00 0.00 10 1014.2
20210621190509 95 135 3.0 10.0 0.00 0.00 0.00 10 1014.3
20210621190008 95 135 6.0 11.0 0.00 0.00 0.00 10 1014.1
20210621185505 96 135 5.0 11.0 0.00 0.00 0.00 10 1014.3
20210621185007 96 135 3.0 9.0 0.00 0.00 0.00 10 1014.3
20210621184505 95 123 4.0 8.0 0.00 0.00 0.00 10 1014.3
20210621184005 95 101 4.0 6.0 0.00 0.00 0.00 10 1014.5
20210621183505 94 62 2.0 8.0 0.00 0.00 0.00 10 1014.5
20210621183006 94 20 2.0 9.0 0.00 0.00 0.00 10 1014.4
20210621182506 94 1 3.0 9.0 0.00 0.00 0.00 10 1014.5
20210621182007 94 1 3.0 9.0 0.00 0.00 0.00 10 1014.7
20210621181508 94 1 4.0 7.0 0.00 0.00 0.00 10 1014.6
20210621181006 93 1 1.0 6.0 0.00 0.00 0.00 10 1014.6
20210621180506 93 1 2.0 7.0 0.00 0.00 0.00 10 1014.5
20210621180007 93 1 4.0 7.0 0.00 0.00 0.00 10 1014.7
20210621175505 93 1 2.0 10.0 0.00 0.00 0.00 10 1014.7
20210621175008 93 1 3.0 10.0 0.00 0.00 0.00 10 1014.7
20210621174505 92 1 1.0 7.0 0.00 0.00 0.00 10 1014.6
20210621174005 92 356 4.0 8.0 0.00 0.00 0.00 10 1014.8
20210621173505 91 344 2.0 8.0 0.00 0.00 0.00 10 1014.8
20210621173006 91 338 3.0 6.0 0.00 0.00 0.00 10 1014.7
20210621172504 91 342 4.0 6.0 0.00 0.00 0.00 10 1014.8
20210621172006 91 341 2.0 4.0 0.00 0.00 0.00 10 1014.9
20210621171505 90 333 1.0 7.0 0.00 0.00 0.00 10 1015.0
20210621171007 90 323 2.0 7.0 0.00 0.00 0.00 10 1014.9
20210621170506 89 305 2.0 7.0 0.00 0.00 0.00 10 1015.0
20210621170005 89 299 3.0 7.0 0.00 0.00 0.00 10 1015.1
20210621165506 89 292 2.0 6.0 0.00 0.00 0.00 10 1015.1
20210621165005 89 286 2.0 5.0 0.00 0.00 0.00 10 1015.0
20210621164506 88 275 2.0 8.0 0.00 0.00 0.00 10 1015.1
20210621164005 88 270 1.0 8.0 0.00 0.00 0.00 10 1015.2
20210621163505 87 270 4.0 8.0 0.00 0.00 0.00 10 1015.1
20210621163005 87 270 1.0 6.0 0.00 0.00 0.00 10 1015.2
20210621162505 87 270 2.0 6.0 0.00 0.00 0.00 10 1015.3
20210621162005 86 270 1.0 2.0 0.00 0.00 0.00 10 1015.2
20210621161505 85 0 0.0 2.0 0.00 0.00 0.00 10 1015.3
20210621161006 85 270 1.0 4.0 0.00 0.00 0.00 10 1015.2
20210621160506 84 0 0.0 4.0 0.00 0.00 0.00 10 1015.3
20210621160005 84 270 2.0 4.0 0.00 0.00 0.00 10 1015.2
20210621155504 84 270 2.0 4.0 0.00 0.00 0.00 10 1015.2
20210621155005 83 270 2.0 4.0 0.00 0.00 0.00 10 1015.3
20210621154504 83 270 1.0 3.0 0.00 0.00 0.00 10 1015.0
20210621154004 83 0 0.0 2.0 0.00 0.00 0.00 10 1015.2
20210621153507 82 0 0.0 4.0 0.00 0.00 0.00 10 1015.1
20210621153006 81 0 0.0 4.0 0.00 0.00 0.00 11 1015.2
20210621152505 80 270 2.0 4.0 0.00 0.00 0.00 12 1015.2
20210621152007 80 270 2.0 4.0 0.00 0.00 0.00 13 1015.3
20210621151508 79 270 2.0 4.0 0.00 0.00 0.00 12 1015.2
20210621151005 79 270 2.0 3.0 0.00 0.00 0.00 15 1015.3
20210621150506 78 0 0.0 2.0 0.00 0.00 0.00 18 1015.3
20210621150007 77 271 1.0 2.0 0.00 0.00 0.00 16 1015.4
20210621145504 77 0 0.0 2.0 0.00 0.00 0.00 17 1015.3
20210621145007 76 291 1.0 4.0 0.00 0.00 0.00 17 1015.4
20210621144507 75 0 0.0 4.0 0.00 0.00 0.00 18 1015.4
20210621144008 74 297 2.0 6.0 0.00 0.00 0.00 18 1015.3
20210621143506 74 307 3.0 6.0 0.00 0.00 0.00 17 1015.3
20210621143006 73 314 2.0 4.0 0.00 0.00 0.00 18 1015.5
20210621142505 73 314 2.0 4.0 0.00 0.00 0.00 19 1015.3
20210621142006 72 314 2.0 4.0 0.00 0.00 0.00 20 1015.2
20210621141507 70 314 2.0 4.0 0.00 0.00 0.00 22 1015.3
20210621141008 69 314 2.0 4.0 0.00 0.00 0.00 24 1015.3
20210621140505 68 314 2.0 3.0 0.00 0.00 0.00 25 1015.4
20210621140005 66 314 1.0 3.0 0.00 0.00 0.00 27 1015.3
20210621135505 65 314 1.0 3.0 0.00 0.00 0.00 29 1015.4
20210621135006 64 0 0.0 3.0 0.00 0.00 0.00 30 1015.4
20210621134506 63 314 2.0 3.0 0.00 0.00 0.00 30 1015.5
20210621134005 62 314 2.0 3.0 0.00 0.00 0.00 30 1015.3
20210621133506 61 0 0.0 3.0 0.00 0.00 0.00 31 1015.5
20210621133007 60 314 1.0 2.0 0.00 0.00 0.00 32 1015.5
20210621132508 60 0 0.0 2.0 0.00 0.00 0.00 32 1015.3
20210621132005 59 0 0.0 2.0 0.00 0.00 0.00 32 1015.4
20210621131505 58 314 1.0 2.0 0.00 0.00 0.00 33 1015.3
20210621131008 58 0 0.0 2.0 0.00 0.00 0.00 31 1015.3
20210621130506 58 0 0.0 3.0 0.00 0.00 0.00 31 1015.2
20210621130005 57 314 1.0 3.0 0.00 0.00 0.00 31 1015.2
20210621125504 57 0 0.0 2.0 0.00 0.00 0.00 30 1015.2
20210621125005 57 0 0.0 3.0 0.00 0.00 0.00 30 1015.2
20210621124505 57 314 1.0 3.0 0.00 0.00 0.00 28 1015.0
20210621124006 58 0 0.0 2.0 0.00 0.00 0.00 28 1015.0
20210621123505 58 314 1.0 3.0 0.00 0.00 0.00 27 1014.9
20210621123006 59 314 1.0 3.0 0.00 0.00 0.00 27 1014.9
20210621122505 59 314 2.0 4.0 0.00 0.00 0.00 27 1014.9
20210621122007 59 314 2.0 4.0 0.00 0.00 0.00 26 1014.8
20210621121507 60 314 2.0 3.0 0.00 0.00 0.00 25 1014.8
20210621121008 60 314 2.0 4.0 0.00 0.00 0.00 25 1014.8
20210621120505 60 314 2.0 4.0 0.00 0.00 0.00 25 1014.6
20210621120005 61 314 2.0 3.0 0.00 0.00 0.00 25 1015.0
20210621115508 61 314 1.0 4.0 0.00 0.00 0.00 25 1015.0
20210621115005 61 314 2.0 4.0 0.00 0.00 0.00 25 1015.0
20210621114507 61 314 2.0 4.0 0.00 0.00 0.00 24 1014.8
20210621114006 61 314 1.0 4.0 0.00 0.00 0.00 24 1014.9
20210621113504 61 314 2.0 4.0 0.00 0.00 0.00 23 1014.9
20210621113007 61 314 2.0 4.0 0.00 0.00 0.00 23 1014.8
20210621112505 61 314 1.0 3.0 0.00 0.00 0.00 22 1014.8
20210621112006 62 314 2.0 3.0 0.00 0.00 0.00 22 1014.8
20210621111505 62 314 2.0 4.0 0.00 0.00 0.00 22 1014.8
20210621111006 62 314 2.0 4.0 0.00 0.00 0.00 21 1014.7
20210621110505 62 314 3.0 4.0 0.00 0.00 0.00 21 1014.7
20210621110006 62 314 3.0 4.0 0.00 0.00 0.00 21 1014.7
20210621105505 62 314 2.0 4.0 0.00 0.00 0.00 21 1014.8
20210621105007 63 314 2.0 4.0 0.00 0.00 0.00 21 1014.9
20210621104505 63 314 2.0 4.0 0.00 0.00 0.00 20 1014.8
20210621104005 63 314 2.0 4.0 0.00 0.00 0.00 20 1014.9
20210621103507 64 314 2.0 4.0 0.00 0.00 0.00 19 1014.7
20210621103007 64 314 2.0 4.0 0.00 0.00 0.00 19 1014.8
20210621102504 64 314 3.0 4.0 0.00 0.00 0.00 19 1014.8
20210621102008 65 314 2.0 4.0 0.00 0.00 0.00 19 1014.8
20210621101505 65 314 2.0 4.0 0.00 0.00 0.00 19 1014.8
20210621101005 65 314 3.0 4.0 0.00 0.00 0.00 19 1014.9
20210621100506 65 314 3.0 6.0 0.00 0.00 0.00 19 1014.9
20210621100005 65 314 3.0 6.0 0.00 0.00 0.00 19 1014.7
20210621095507 65 314 3.0 6.0 0.00 0.00 0.00 19 1014.7
20210621095008 65 314 3.0 6.0 0.00 0.00 0.00 19 1014.8
20210621094505 65 314 3.0 6.0 0.00 0.00 0.00 20 1014.7
20210621094005 65 314 3.0 5.0 0.00 0.00 0.00 20 1014.7
20210621093507 65 314 3.0 5.0 0.00 0.00 0.00 20 1014.8
20210621093006 64 314 3.0 5.0 0.00 0.00 0.00 20 1014.8
20210621092505 65 314 2.0 4.0 0.00 0.00 0.00 20 1014.8
20210621092006 65 314 3.0 4.0 0.00 0.00 0.00 20 1014.8
20210621091505 65 314 3.0 4.0 0.00 0.00 0.00 20 1014.7
20210621091005 65 314 2.0 4.0 0.00 0.00 0.00 20 1014.8
20210621090506 64 314 3.0 5.0 0.00 0.00 0.00 20 1014.7
20210621090006 64 314 3.0 5.0 0.00 0.00 0.00 20 1014.8
20210621085508 65 314 2.0 3.0 0.00 0.00 0.00 20 1014.9
20210621085005 65 314 1.0 4.0 0.00 0.00 0.00 20 1014.8
20210621084508 65 314 2.0 5.0 0.00 0.00 0.00 19 1014.8
20210621084007 65 314 2.0 5.0 0.00 0.00 0.00 19 1014.8
20210621083505 66 314 2.0 4.0 0.00 0.00 0.00 19 1014.7
20210621083007 66 314 2.0 5.0 0.00 0.00 0.00 19 1014.7
20210621082508 66 314 2.0 5.0 0.00 0.00 0.00 19 1014.7
20210621082007 67 314 2.0 4.0 0.00 0.00 0.00 19 1014.7
20210621081508 67 314 1.0 4.0 0.00 0.00 0.00 19 1014.7
20210621081005 67 314 2.0 4.0 0.00 0.00 0.00 19 1014.6
20210621080506 67 314 3.0 5.0 0.00 0.00 0.00 19 1014.6
20210621080005 67 314 3.0 5.0 0.00 0.00 0.00 19 1014.5
20210621075505 67 314 1.0 3.0 0.00 0.00 0.00 19 1014.6
20210621075005 68 314 2.0 3.0 0.00 0.00 0.00 19 1014.6
20210621074506 68 314 2.0 4.0 0.00 0.00 0.00 19 1014.7
20210621074009 68 314 1.0 4.0 0.00 0.00 0.00 18 1014.7
20210621073508 69 314 3.0 4.0 0.00 0.00 0.00 18 1014.6
20210621073007 69 314 2.0 5.0 0.00 0.00 0.00 18 1014.5
20210621072505 70 314 2.0 5.0 0.00 0.00 0.00 17 1014.5
20210621072005 71 314 2.0 4.0 0.00 0.00 0.00 16 1014.2
20210621071508 72 311 2.0 4.0 0.00 0.00 0.00 16 1014.4
20210621071005 72 287 2.0 4.0 0.00 0.00 0.00 16 1014.3
20210621070506 73 270 2.0 4.0 0.00 0.00 0.00 15 1014.5
20210621070018 73 270 2.0 4.0 0.00 0.00 0.00 15 1014.5
20210621065506 74 270 2.0 5.0 0.00 0.00 0.00 14 1014.5
20210621065008 75 270 2.0 5.0 0.00 0.00 0.00 14 1014.5
20210621064505 75 0 0.0 8.0 0.00 0.00 0.00 14 1014.4
20210621064005 75 270 3.0 8.0 0.00 0.00 0.00 14 1014.5
20210621063505 75 270 2.0 8.0 0.00 0.00 0.00 14 1014.5
20210621063005 75 270 2.0 4.0 0.00 0.00 0.00 14 1014.5
20210621062505 76 270 2.0 6.0 0.00 0.00 0.00 15 1014.5
20210621062007 75 270 2.0 6.0 0.00 0.00 0.00 15 1014.4
20210621061507 74 270 4.0 6.0 0.00 0.00 0.00 15 1014.5
20210621061005 75 270 2.0 4.0 0.00 0.00 0.00 15 1014.5
20210621060506 76 270 1.0 4.0 0.00 0.00 0.00 13 1014.6
20210621060005 76 270 1.0 4.0 0.00 0.00 0.00 13 1014.5
20210621055505 77 270 2.0 4.0 0.00 0.00 0.00 13 1014.4
20210621055006 77 0 0.0 6.0 0.00 0.00 0.00 12 1014.5
20210621054505 78 270 2.0 6.0 0.00 0.00 0.00 12 1014.6
20210621054008 78 275 3.0 11.0 0.00 0.00 0.00 12 1014.5
20210621053505 78 283 4.0 11.0 0.00 0.00 0.00 12 1014.2
20210621053008 78 292 4.0 8.0 0.00 0.00 0.00 12 1014.4
20210621052505 78 292 2.0 7.0 0.00 0.00 0.00 12 1014.4
20210621052009 79 283 4.0 8.0 0.00 0.00 0.00 11 1014.4
20210621051506 79 275 4.0 11.0 0.00 0.00 0.00 11 1014.4
20210621051006 80 284 4.0 11.0 0.00 0.00 0.00 11 1014.5
20210621050509 80 284 5.0 13.0 0.00 0.00 0.00 11 1014.3
20210621050005 80 283 6.0 13.0 0.00 0.00 0.00 11 1014.3
20210621045506 80 285 4.0 14.0 0.00 0.00 0.00 11 1014.4
20210621045007 80 285 4.0 14.0 0.00 0.00 0.00 11 1014.2
20210621044507 80 296 7.0 13.0 0.00 0.00 0.00 11 1014.2
20210621044005 80 311 4.0 11.0 0.00 0.00 0.00 11 1014.0
20210621043505 81 315 4.0 13.0 0.00 0.00 0.00 12 1014.0
20210621043005 81 292 5.0 13.0 0.00 0.00 0.00 11 1013.9
20210621042506 82 273 7.0 16.0 0.00 0.00 0.00 10 1013.7
20210621042006 82 289 10.0 16.0 0.00 0.00 0.00 10 1013.8
20210621041506 82 310 8.0 15.0 0.00 0.00 0.00 11 1013.6
20210621041008 82 314 8.0 12.0 0.00 0.00 0.00 11 1013.6
20210621040505 82 314 8.0 15.0 0.00 0.00 0.00 11 1013.5
20210621040006 81 314 8.0 15.0 0.00 0.00 0.00 10 1013.4
20210621035505 83 314 7.0 11.0 0.00 0.00 0.00 10 1013.3
20210621032505 84 312 8.0 14.0 0.00 0.00 0.00 10 1012.8
20210621032005 84 301 5.0 14.0 0.00 0.00 0.00 10 1012.9
20210621031505 85 286 7.0 15.0 0.00 0.00 0.00 10 1012.8
20210621031007 85 292 7.0 15.0 0.00 0.00 0.00 10 1012.8
20210621030505 86 308 9.0 15.0 0.00 0.00 0.00 10 1012.7
20210621030005 86 314 8.0 17.0 0.00 0.00 0.00 10 1012.7
20210621025507 87 314 10.0 17.0 0.00 0.00 0.00 10 1012.7
20210621025005 88 314 9.0 15.0 0.00 0.00 0.00 10 1012.5
20210621024509 88 314 8.0 18.0 0.00 0.00 0.00 10 1012.5
20210621024005 89 310 7.0 18.0 0.00 0.00 0.00 10 1012.5
20210621023505 89 310 11.0 18.0 0.00 0.00 0.00 10 1012.4
20210621023007 90 314 11.0 16.0 0.00 0.00 0.00 10 1012.5
20210621022505 90 314 8.0 15.0 0.00 0.00 0.00 10 1012.3
20210621022005 91 314 7.0 15.0 0.00 0.00 0.00 10 1012.4
20210621021505 91 314 10.0 15.0 0.00 0.00 0.00 10 1012.3
20210621021005 92 314 5.0 16.0 0.00 0.00 0.00 10 1012.3
20210621020505 92 314 7.0 16.0 0.00 0.00 0.00 10 1012.3
20210621020005 93 314 8.0 12.0 0.00 0.00 0.00 10 1012.2
20210621015505 93 314 7.0 14.0 0.00 0.00 0.00 10 1012.3
20210621015005 92 314 7.0 14.0 0.00 0.00 0.00 10 1012.3
20210621014507 96 314 8.0 15.0 0.00 0.00 0.00 10 1012.3
20210621014005 94 314 8.0 15.0 0.00 0.00 0.00 10 1012.3
20210621013504 94 314 9.0 14.0 0.00 0.00 0.00 10 1012.2
20210621013005 94 314 7.0 15.0 0.00 0.00 0.00 10 1012.2
20210621012504 94 314 8.0 15.0 0.00 0.00 0.00 10 1012.2
20210621012007 94 314 7.0 20.0 0.00 0.00 0.00 10 1012.2
20210621011508 94 314 8.0 20.0 0.00 0.00 0.00 10 1012.2
20210621011007 95 314 10.0 15.0 0.00 0.00 0.00 10 1012.2
20210621010505 95 314 8.0 15.0 0.00 0.00 0.00 10 1012.2
20210621010007 96 314 11.0 17.0 0.00 0.00 0.00 10 1012.3
20210621005505 96 320 6.0 22.0 0.00 0.00 0.00 10 1012.2
20210621005006 96 339 10.0 22.0 0.00 0.00 0.00 10 1012.2
20210621004506 96 338 11.0 19.0 0.00 0.00 0.00 10 1012.1
20210621004005 96 314 8.0 19.0 0.00 0.00 0.00 10 1012.2
20210621003505 96 324 8.0 19.0 0.00 0.00 0.00 10 1012.2
20210621003005 97 329 14.0 21.0 0.00 0.00 0.00 10 1012.2
20210621002506 97 322 11.0 21.0 0.00 0.00 0.00 10 1012.1
20210621002005 98 320 10.0 17.0 0.00 0.00 0.00 10 1012.2
20210621001505 98 325 11.0 21.0 0.00 0.00 0.00 10 1012.3
20210621001005 98 345 11.0 21.0 0.00 0.00 0.00 10 1012.2
20210621000506 98 1 9.0 17.0 0.00 0.00 0.00 10 1012.2
20210621000005 98 1 9.0 19.0 0.00 0.00 0.00 10 1012.2
20210620235505 99 1 8.0 19.0 0.00 0.00 0.00 10 1012.1
20210620235006 99 1 9.0 16.0 0.00 0.00 0.00 10 1012.2
20210620234508 100 1 9.0 16.0 0.00 0.00 0.00 10 1012.1
20210620234005 100 349 8.0 18.0 0.00 0.00 0.00 10 1012.0
20210620233504 100 331 10.0 18.0 0.00 0.00 0.00 10 1011.9
20210620233006 100 308 8.0 20.0 0.00 0.00 0.00 10 1012.1
20210620232505 101 282 8.0 20.0 0.00 0.00 0.00 10 1012.1
20210620232006 102 265 11.0 17.0 0.00 0.00 0.00 10 1012.1
20210620231506 102 248 8.0 15.0 0.00 0.00 0.00 10 1012.1
20210620231005 102 227 7.0 11.0 0.00 0.00 0.00 10 1012.2
20210620230508 102 225 4.0 9.0 0.00 0.00 0.00 10 1012.3
20210620230006 102 225 4.0 9.0 0.00 0.00 0.00 10 1012.3
20210620225508 102 225 2.0 11.0 0.00 0.00 0.00 10 1012.4
20210620225005 103 225 4.0 11.0 0.00 0.00 0.00 10 1012.1
20210620224507 103 225 4.0 8.0 0.00 0.00 0.00 10 1012.3
20210620224006 103 225 3.0 9.0 0.00 0.00 0.00 10 1012.4
20210620223505 102 225 4.0 11.0 0.00 0.00 0.00 10 1012.4
20210620223005 102 225 3.0 15.0 0.00 0.00 0.00 10 1012.5
20210620222504 102 225 2.0 15.0 0.00 0.00 0.00 10 1012.6
20210620222005 102 225 1.0 15.0 0.00 0.00 0.00 10 1012.6
20210620221508 102 225 8.0 15.0 0.00 0.00 0.00 10 1012.6
20210620221007 102 225 9.0 15.0 0.00 0.00 0.00 10 1012.6
20210620220505 103 225 5.0 12.0 0.00 0.00 0.00 10 1012.6
20210620220009 103 225 6.0 11.0 0.00 0.00 0.00 10 1012.7
20210620215505 104 225 3.0 8.0 0.00 0.00 0.00 10 1012.9
20210620215006 104 225 4.0 8.0 0.00 0.00 0.00 10 1012.9
20210620214505 104 225 5.0 10.0 0.00 0.00 0.00 10 1012.9
20210620214005 103 225 4.0 10.0 0.00 0.00 0.00 10 1013.1
20210620213505 102 225 3.0 7.0 0.00 0.00 0.00 10 1013.0
20210620213007 102 225 2.0 12.0 0.00 0.00 0.00 10 1013.0
20210620212506 101 225 4.0 12.0 0.00 0.00 0.00 10 1013.2
20210620212005 101 225 8.0 12.0 0.00 0.00 0.00 10 1013.1
20210620211506 101 218 6.0 12.0 0.00 0.00 0.00 10 1013.1
20210620211007 101 218 4.0 11.0 0.00 0.00 0.00 10 1013.1
20210620210505 101 220 5.0 11.0 0.00 0.00 0.00 10 1013.1
20210620210005 101 204 7.0 11.0 0.00 0.00 0.00 10 1013.1
20210620205508 102 185 2.0 9.0 0.00 0.00 0.00 10 1013.2
20210620205007 102 181 2.0 8.0 0.00 0.00 0.00 10 1013.3
20210620204507 101 181 4.0 8.0 0.00 0.00 0.00 10 1013.3
20210620204005 101 181 4.0 7.0 0.00 0.00 0.00 10 1013.5
20210620203508 100 181 1.0 7.0 0.00 0.00 0.00 10 1013.5
20210620203007 100 181 2.0 7.0 0.00 0.00 0.00 10 1013.5
20210620202505 100 181 1.0 7.0 0.00 0.00 0.00 10 1013.6
20210620202008 100 181 4.0 9.0 0.00 0.00 0.00 10 1013.6
20210620201505 100 181 4.0 10.0 0.00 0.00 0.00 10 1013.6
20210620201006 101 181 6.0 10.0 0.00 0.00 0.00 10 1013.7
20210620200505 101 181 4.0 9.0 0.00 0.00 0.00 10 1013.6
20210620200008 100 190 4.0 11.0 0.00 0.00 0.00 10 1013.8
20210620195506 100 212 3.0 11.0 0.00 0.00 0.00 10 1013.8
20210620195006 100 225 2.0 8.0 0.00 0.00 0.00 10 1014.0
20210620194506 100 225 2.0 4.0 0.00 0.00 0.00 10 1014.0
20210620194005 99 225 1.0 8.0 0.00 0.00 0.00 10 1014.1
20210620193506 99 225 2.0 11.0 0.00 0.00 0.00 10 1014.0
20210620193005 98 215 4.0 12.0 0.00 0.00 0.00 10 1014.2
20210620192506 99 205 4.0 12.0 0.00 0.00 0.00 10 1014.2
20210620192007 98 216 3.0 7.0 0.00 0.00 0.00 10 1014.1